San Gabriel, CA (91775)

10:24 AM PDT on September 01, 2015 (GMT -0700)
San Gabriel | | Change Station
CLOSE
Current Station
Personal Weather Station
Location: San Gabriel, CA
Elevation: 450 ft
Nearby Weather Stations

Elev 450 ft 34.11 °N, 118.10 °W | Updated 24 minutes ago

Partly Cloudy
Partly Cloudy
74.4 °F
Feels Like 77 °F
N
4.0
Wind Variable Wind from SSW
Gusts 4.0 mph

Today
High -- | Low -- °F
--% Chance of Precip.
Yesterday
High -- | Low -- °F
Precip. -- in
6:25 AM 7:18 PM
Waning Gibbous, 87% visible
Pressure 29.92 in
Visibility 10.0 miles
Clouds Overcast 3000 ft
Heat Index 77 °F
Dew Point 61 °F
Humidity 64%
Rainfall 0.00 in
Snow Depth Not available.
UV 2 out of 12
Pollen 7.20 out of 12
Air Quality Not available.
Flu Activity Not available.
METAR KCQT 011647Z AUTO VRB03KT 10SM OVC030 23/15 A2993 RMK AO2 SLP132 T02330150
Pressure 29.92 in
Visibility 10.0 miles
Clouds Overcast 3000 ft
Heat Index 77 °F
Dew Point 61 °F
Humidity 64%
Rainfall 0.00 in
Snow Depth Not available.
UV 2 out of 12
Pollen 7.20 out of 12
Air Quality Not available.
Flu Activity Not available.
METAR KCQT 011647Z AUTO VRB03KT 10SM OVC030 23/15 A2993 RMK AO2 SLP132 T02330150

10-Day Weather Forecast

×

Almanac

Astronomy

Sep. 01, 2015 Rise Set
Actual Time
Civil Twilight
Nautical Twilight
Astronomical Twilight
Moon
Length of Visible Light
Length of Day
Tomorrow will be .
, % of the Moon is Illuminated

Today's Extremes

State Highs State Lows

Community

WunderPhotos

Upload Photos

1,851,567 photos uploaded!

WunderBlogs® & News

Nearby

Air Quality

  Air Quality AQ Index Pollutant
Not available.

Snow Depth

Station Depth Elevation

Earthquake Activity

City Distance Mag. Time & Date
Minimum magnitude displayed is 2.5.

Coastal Water Temperatures

Place Temperature

Stations

Nearby Weather Stations

Station Location Temp. Windchill Dew Point Humidity Wind Precip. Elev Updated Type